Time;durP1;ratioP1;P1;durP2;ratioP2;P2;SDS_P1;SDS_P2;PMS_P1;PMS_P2;Temp;Humidity;BMP_temperature;BMP_pressure;BME280_temperature;BME280_humidity;BME280_pressure;Samples;Min_cycle;Max_cycle;Signal;HPM_P1;HPM_P2
2021/07/20 00:00:10;;;;;;;17.02;10.25;;;;;;;20.31;76.25;99048.22;4979815;28;20044;-81
2021/07/20 00:02:41;;;;;;;19.15;10.43;;;;;;;20.24;76.29;99030.19;4979374;28;20038;-80
2021/07/20 00:05:11;;;;;;;23.27;11.57;;;;;;;20.31;76.43;99042.91;5015191;28;20045;-79
2021/07/20 00:07:37;;;;;;;18.00;10.68;;;;;;;20.31;76.56;99040.28;5012462;28;20634;-79
2021/07/20 00:10:08;;;;;;;17.27;10.73;;;;;;;20.22;76.72;99022.38;4979566;28;20049;-81
2021/07/20 00:12:34;;;;;;;19.08;10.95;;;;;;;20.34;76.41;99033.97;4995204;28;20487;-82
2021/07/20 00:15:00;;;;;;;17.88;10.00;;;;;;;20.36;76.51;99034.75;4963432;28;20161;-80
2021/07/20 00:17:28;;;;;;;16.95;9.88;;;;;;;20.43;76.25;99046.59;4995136;28;20049;-82
2021/07/20 00:19:54;;;;;;;23.25;10.95;;;;;;;20.38;76.20;99035.50;5012937;28;20034;-80
2021/07/20 00:22:20;;;;;;;17.63;9.63;;;;;;;20.54;76.35;99058.31;4979144;28;20049;-81
2021/07/20 00:24:46;;;;;;;16.30;9.65;;;;;;;20.49;76.35;99055.97;5026983;28;20435;-80
2021/07/20 00:27:12;;;;;;;15.70;10.30;;;;;;;20.49;76.25;99055.97;5015345;28;20099;-81
2021/07/20 00:29:47;;;;;;;19.52;11.07;;;;;;;20.44;76.20;99047.47;4998511;28;20044;-81
2021/07/20 00:32:20;;;;;;;20.05;10.65;;;;;;;20.08;76.12;98982.78;4981070;28;20471;-79
2021/07/20 00:34:46;;;;;;;23.98;10.73;;;;;;;19.79;76.23;98935.19;4995761;28;20067;-80
2021/07/20 00:37:13;;;;;;;20.60;10.73;;;;;;;20.39;76.43;99039.84;4999006;28;20078;-80
2021/07/20 00:39:38;;;;;;;19.50;9.88;;;;;;;20.46;76.47;99046.41;5032816;28;20045;-80
2021/07/20 00:42:05;;;;;;;20.67;10.57;;;;;;;20.59;76.22;99067.66;5015183;28;20049;-83
2021/07/20 00:44:33;;;;;;;16.38;9.50;;;;;;;20.56;76.23;99056.44;4997823;28;20065;-80
2021/07/20 00:46:59;;;;;;;15.73;9.48;;;;;;;20.62;76.28;99066.63;4998059;28;20033;-80
2021/07/20 00:49:26;;;;;;;17.20;9.98;;;;;;;20.64;75.91;99066.53;5029914;28;20111;-79
2021/07/20 00:51:52;;;;;;;11.00;9.05;;;;;;;20.65;75.94;99068.22;5031244;28;20528;-78
2021/07/20 00:54:18;;;;;;;14.00;9.80;;;;;;;20.52;75.90;99042.56;4998679;28;20044;-79
2021/07/20 00:56:45;;;;;;;18.35;9.75;;;;;;;20.65;76.03;99068.22;5017436;28;20053;-79
2021/07/20 00:59:13;;;;;;;17.80;9.43;;;;;;;20.57;76.01;99052.84;4986905;28;20047;-80
2021/07/20 01:01:39;;;;;;;15.55;9.45;;;;;;;20.57;75.56;99042.28;5012924;28;20041;-79
2021/07/20 01:04:07;;;;;;;13.18;9.20;;;;;;;20.59;75.51;99043.88;4998102;28;20492;-79
2021/07/20 01:06:35;;;;;;;19.45;9.45;;;;;;;20.44;75.74;99024.53;5015307;28;20037;-79
2021/07/20 01:09:04;;;;;;;13.38;9.23;;;;;;;20.64;75.57;99050.66;4998324;28;20074;-79
2021/07/20 01:11:38;;;;;;;13.80;8.77;;;;;;;20.53;75.35;99036.31;4999373;28;20112;-82
2021/07/20 01:14:06;;;;;;;13.95;9.07;;;;;;;20.61;75.28;99036.69;5037862;28;20041;-78
2021/07/20 01:16:36;;;;;;;18.48;9.13;;;;;;;20.63;75.24;99047.19;5013789;28;20041;-82
2021/07/20 01:19:05;;;;;;;15.38;8.85;;;;;;;20.57;75.06;99037.81;4983311;28;20068;-80
2021/07/20 01:21:35;;;;;;;15.75;9.27;;;;;;;20.51;75.15;99032.94;5000364;28;20537;-81
2021/07/20 01:24:07;;;;;;;12.93;8.82;;;;;;;20.49;75.31;99018.09;5011567;28;20046;-81
2021/07/20 01:26:34;;;;;;;11.70;8.52;;;;;;;20.61;74.84;99038.50;4995066;28;20037;-80
2021/07/20 01:29:04;;;;;;;13.13;8.45;;;;;;;20.57;75.24;99029.06;4976952;28;20096;-80
2021/07/20 01:31:33;;;;;;;15.90;8.93;;;;;;;20.53;74.89;99024.91;4993727;28;20042;-81
2021/07/20 01:34:08;;;;;;;13.82;8.55;;;;;;;20.60;74.88;99027.06;5010778;28;20184;-81
2021/07/20 01:36:39;;;;;;;12.05;8.55;;;;;;;20.60;74.67;99028.88;4977995;28;20492;-79
2021/07/20 01:39:08;;;;;;;11.68;8.05;;;;;;;20.54;74.80;99013.41;4978274;28;20103;-81
2021/07/20 01:41:36;;;;;;;13.75;8.73;;;;;;;20.54;74.71;99013.41;4994373;28;20046;-78
2021/07/20 01:44:09;;;;;;;13.27;8.65;;;;;;;20.65;74.47;99025.94;4994152;28;20049;-79
2021/07/20 01:46:39;;;;;;;12.85;7.95;;;;;;;20.59;74.20;99019.25;4993968;28;20049;-78
2021/07/20 01:49:10;;;;;;;16.45;9.02;;;;;;;20.69;74.11;99032.72;5005032;28;20046;-78
2021/07/20 01:51:36;;;;;;;;;;;;;;;20.70;73.82;99029.13;4988596;28;20046;-80
2021/07/20 01:54:07;;;;;;;12.68;8.43;;;;;;;20.69;73.87;99033.56;4981355;28;19956;-79
2021/07/20 01:56:35;;;;;;;13.32;8.48;;;;;;;20.69;73.62;99040.66;5012486;28;20041;-78
2021/07/20 01:59:03;;;;;;;14.73;8.88;;;;;;;20.69;73.54;99033.56;5011477;28;20057;-80
2021/07/20 02:02:10;;;;;;;13.30;8.88;;;;;;;20.52;73.52;99008.22;5012520;28;20026;-80
2021/07/20 02:10:09;;;;;;;10.43;8.05;;;;;;;20.56;73.18;99011.50;4994149;28;20424;-81
2021/07/20 02:12:59;;;;;;;12.23;8.27;;;;;;;20.72;72.95;99035.19;4968110;28;20490;-79
2021/07/20 02:15:50;;;;;;;14.25;8.98;;;;;;;20.52;72.71;99012.63;4985755;28;20046;-79
2021/07/20 02:18:45;;;;;;;17.13;8.50;;;;;;;20.80;72.95;99045.28;5008611;28;20052;-81
2021/07/20 02:21:21;;;;;;;14.88;8.77;;;;;;;20.79;72.42;99028.56;4993420;28;20092;-81
2021/07/20 02:23:51;;;;;;;14.40;8.68;;;;;;;20.82;72.46;99024.91;4981785;28;20065;-78
2021/07/20 02:26:20;;;;;;;11.20;8.40;;;;;;;20.96;72.18;99042.53;4998284;28;20496;-80
2021/07/20 02:28:50;;;;;;;12.15;8.65;;;;;;;21.02;71.87;99047.41;5030268;28;20092;-81
2021/07/20 02:31:19;;;;;;;13.80;8.52;;;;;;;21.09;71.90;99045.19;4994273;28;20042;-79
2021/07/20 02:33:47;;;;;;;14.15;8.38;;;;;;;21.07;71.29;99032.09;5015643;28;20474;-78
2021/07/20 02:36:15;;;;;;;11.10;7.53;;;;;;;21.09;71.35;99026.69;5017719;28;20103;-81
2021/07/20 02:38:43;;;;;;;11.27;7.93;;;;;;;21.24;71.12;99046.88;5033874;28;20041;-80
2021/07/20 02:41:14;;;;;;;12.13;8.02;;;;;;;21.29;70.77;99038.63;5016806;28;20048;-81
2021/07/20 02:43:47;;;;;;;10.02;8.27;;;;;;;21.36;70.55;99040.78;5017436;28;20069;-79
2021/07/20 02:46:16;;;;;;;14.07;8.98;;;;;;;21.45;70.09;99049.88;5016513;28;20132;-80
2021/07/20 02:48:44;;;;;;;10.75;7.80;;;;;;;21.37;70.23;99031.88;5000082;28;20041;-78
2021/07/20 02:51:18;;;;;;;12.32;7.78;;;;;;;21.48;70.00;99043.56;4997246;28;20077;-79
2021/07/20 02:53:48;;;;;;;14.15;8.10;;;;;;;21.54;69.81;99048.44;4981637;28;20052;-81
2021/07/20 02:56:17;;;;;;;14.43;7.70;;;;;;;21.62;69.34;99055.91;5015804;28;20048;-79
2021/07/20 02:58:53;;;;;;;17.15;8.57;;;;;;;21.68;69.05;99042.25;5014988;28;20077;-80
2021/07/20 03:01:27;;;;;;;12.88;8.43;;;;;;;21.75;69.02;99038.25;5017305;28;20041;-79
2021/07/20 03:03:55;;;;;;;11.48;8.30;;;;;;;21.71;68.86;99017.41;5001323;28;20042;-81
2021/07/20 03:06:28;;;;;;;12.73;8.02;;;;;;;21.91;69.00;99035.41;5016782;28;20037;-79
2021/07/20 03:08:58;;;;;;;17.45;8.35;;;;;;;21.91;68.41;99021.31;5000712;28;20033;-80
2021/07/20 03:11:44;;;;;;;15.55;8.60;;;;;;;22.08;67.92;99038.69;5002268;28;20046;-80
2021/07/20 03:14:20;;;;;;;12.67;8.17;;;;;;;22.10;68.13;99040.28;5045134;28;20042;-78
2021/07/20 03:17:01;;;;;;;15.30;8.55;;;;;;;22.22;67.42;99037.75;5034247;28;20302;-80
2021/07/20 03:19:31;;;;;;;17.83;8.85;;;;;;;22.14;67.45;99013.59;5000091;28;20459;-79
2021/07/20 03:22:06;;;;;;;14.65;8.98;;;;;;;22.21;67.25;99010.41;5016228;28;20090;-80
2021/07/20 03:24:38;;;;;;;10.70;8.05;;;;;;;22.44;66.94;99034.47;5016288;28;20181;-79
2021/07/20 03:27:08;;;;;;;15.25;8.60;;;;;;;22.58;66.81;99046.75;5015939;28;20045;-81
2021/07/20 03:29:42;;;;;;;15.80;7.85;;;;;;;22.59;66.71;99035.19;5032583;28;20069;-79
2021/07/20 03:32:15;;;;;;;14.40;8.45;;;;;;;22.67;66.59;99021.38;4984733;28;20043;-80
2021/07/20 03:34:45;;;;;;;14.38;8.80;;;;;;;22.83;66.07;99035.25;5017092;28;20050;-80
2021/07/20 03:37:13;;;;;;;12.30;8.77;;;;;;;22.71;65.58;98996.34;4999914;28;20091;-83
2021/07/20 03:39:43;;;;;;;;;;;;;;;23.11;65.62;99040.34;4983039;28;20042;-80
2021/07/20 03:42:25;;;;;;;11.18;7.75;;;;;;;23.22;65.11;99042.25;4999921;28;20384;-80
2021/07/20 03:44:54;;;;;;;16.10;8.65;;;;;;;23.04;64.85;99005.47;5014580;28;20566;-81
2021/07/20 03:47:23;;;;;;;16.98;9.52;;;;;;;23.53;64.28;99054.09;5014672;28;20069;-80
2021/07/20 03:49:53;;;;;;;11.40;8.02;;;;;;;23.48;63.83;99010.25;4984682;28;20056;-81
2021/07/20 03:52:23;;;;;;;15.63;7.90;;;;;;;23.87;63.60;99040.06;5016475;28;20068;-79
2021/07/20 03:54:51;;;;;;;13.90;8.80;;;;;;;24.01;62.83;99050.50;4984354;28;20415;-80
2021/07/20 03:57:23;;;;;;;17.77;12.43;;;;;;;24.10;62.31;99037.47;4997123;28;20061;-80
2021/07/20 03:59:54;;;;;;;16.17;10.80;;;;;;;24.28;61.85;99044.00;5018885;28;20057;-80
2021/07/20 04:02:25;;;;;;;18.15;9.23;;;;;;;24.38;61.40;99045.97;5042600;28;20063;-80
2021/07/20 04:04:57;;;;;;;14.65;9.15;;;;;;;24.52;60.76;99048.38;5012157;28;20030;-81
2021/07/20 04:07:32;;;;;;;12.70;8.32;;;;;;;24.51;60.40;99036.88;5051821;28;20041;-81
2021/07/20 04:10:01;;;;;;;12.88;8.38;;;;;;;24.74;60.12;99052.84;5039455;28;20033;-80
2021/07/20 04:12:44;;;;;;;13.40;7.90;;;;;;;24.77;59.55;99044.63;5050987;28;20041;-80
2021/07/20 04:15:30;;;;;;;11.50;8.10;;;;;;;24.78;58.81;99034.84;5016071;28;20088;-79
2021/07/20 04:18:15;;;;;;;13.23;7.63;;;;;;;25.11;58.65;99059.66;5007675;28;20049;-80
2021/07/20 04:20:43;;;;;;;13.20;8.07;;;;;;;25.26;57.82;99070.88;5043989;28;20045;-82
2021/07/20 04:23:12;;;;;;;15.13;8.18;;;;;;;25.25;57.41;99046.09;5011471;28;20092;-80
2021/07/20 04:25:58;;;;;;;12.75;8.10;;;;;;;25.55;57.13;99081.00;5001366;28;20398;-80
2021/07/20 04:28:26;;;;;;;15.27;8.50;;;;;;;25.57;56.43;99060.41;5017208;28;20065;-80
2021/07/20 04:30:58;;;;;;;11.57;7.65;;;;;;;25.85;56.33;99080.25;5016572;28;20099;-80
2021/07/20 04:33:30;;;;;;;13.02;8.60;;;;;;;25.97;55.71;99078.34;5015204;28;20041;-80
2021/07/20 04:36:16;;;;;;;10.95;7.78;;;;;;;25.78;55.15;99015.13;5018193;28;20049;-80
2021/07/20 04:38:47;;;;;;;12.25;8.45;;;;;;;25.82;54.57;99011.22;5015434;28;20481;-80
2021/07/20 04:41:17;;;;;;;13.13;8.45;;;;;;;26.20;54.40;99042.72;5016403;28;20575;-80
2021/07/20 04:43:48;;;;;;;10.98;7.90;;;;;;;26.53;53.33;99088.78;5032751;28;20075;-79
2021/07/20 04:46:31;;;;;;;12.88;8.43;;;;;;;26.51;53.53;99064.06;5002590;28;20049;-80
2021/07/20 04:49:04;;;;;;;14.05;7.82;;;;;;;26.43;52.34;99036.25;5034112;28;20044;-79
2021/07/20 04:51:33;;;;;;;12.07;8.50;;;;;;;26.86;52.58;99085.03;5000811;28;20045;-81
2021/07/20 04:54:04;;;;;;;10.48;7.65;;;;;;;26.83;51.91;99041.72;5000712;28;20045;-81
2021/07/20 04:56:32;;;;;;;11.43;7.68;;;;;;;27.35;51.60;99081.59;5000182;28;20076;-80
2021/07/20 04:58:58;;;;;;;13.10;8.65;;;;;;;27.69;50.72;99083.88;5015442;28;20049;-81
2021/07/20 05:01:25;;;;;;;15.23;8.65;;;;;;;27.91;50.11;99087.25;5016164;28;20041;-81
2021/07/20 05:03:56;;;;;;;14.90;8.45;;;;;;;28.02;49.15;99094.25;4998018;28;20091;-81
2021/07/20 05:06:29;;;;;;;10.48;7.78;;;;;;;27.96;48.96;99088.47;5014422;28;20527;-80
2021/07/20 05:09:00;;;;;;;15.00;8.30;;;;;;;27.84;48.90;99064.72;5015423;28;20055;-80
2021/07/20 05:11:27;;;;;;;11.35;7.90;;;;;;;27.97;48.33;99089.34;4966831;28;20048;-80
2021/07/20 05:14:04;;;;;;;15.43;7.88;;;;;;;28.10;48.31;99081.03;5001857;28;20080;-80
2021/07/20 05:16:34;;;;;;;12.00;7.80;;;;;;;27.96;48.13;99053.75;5001298;28;20051;-82
2021/07/20 05:19:04;;;;;;;10.85;7.30;;;;;;;28.23;47.64;99086.09;5032620;28;20136;-79
2021/07/20 05:22:03;;;;;;;11.73;7.75;;;;;;;28.21;47.60;99066.69;5009094;28;20047;-80
2021/07/20 05:24:47;;;;;;;11.70;7.53;;;;;;;28.27;47.58;99058.03;5014996;28;20100;-79
2021/07/20 05:27:17;;;;;;;10.50;7.68;;;;;;;28.55;47.15;99079.50;4999644;28;20037;-81
2021/07/20 05:29:46;;;;;;;12.63;7.57;;;;;;;28.85;46.41;99091.78;5024152;28;20045;-80
2021/07/20 05:32:45;;;;;;;10.40;7.80;;;;;;;29.12;46.21;99090.06;5020766;28;20037;-80
2021/07/20 05:35:19;;;;;;;13.32;6.97;;;;;;;28.91;45.38;99017.22;5030532;28;20040;-79
2021/07/20 05:37:50;;;;;;;16.83;8.05;;;;;;;29.37;44.75;99071.63;5015440;28;20045;-80
2021/07/20 05:40:20;;;;;;;12.52;7.10;;;;;;;29.35;44.69;99075.41;4999197;28;20587;-80
2021/07/20 05:42:48;;;;;;;15.63;7.30;;;;;;;29.46;44.49;99065.31;5031242;28;20073;-80
2021/07/20 05:45:28;;;;;;;10.40;7.45;;;;;;;29.81;43.69;99073.47;5014827;28;20051;-80
2021/07/20 05:48:01;;;;;;;13.85;7.80;;;;;;;30.18;43.17;99083.19;5032396;28;20095;-80
2021/07/20 05:50:50;;;;;;;9.02;7.40;;;;;;;31.04;42.36;99093.16;5016838;28;20049;-80
2021/07/20 05:53:31;;;;;;;13.18;7.45;;;;;;;32.25;40.68;98983.28;4998766;28;20069;-82
2021/07/20 05:56:43;;;;;;;11.88;6.97;;;;;;;34.89;37.25;99047.66;4992761;28;20076;-81
2021/07/20 05:59:43;;;;;;;10.13;7.07;;;;;;;36.82;34.60;99083.81;5033470;28;20109;-81
2021/07/20 06:02:22;;;;;;;12.70;7.20;;;;;;;37.71;31.89;99010.56;5015816;28;20037;-83
2021/07/20 06:04:51;;;;;;;8.43;6.60;;;;;;;39.13;30.82;99060.72;5033699;28;20042;-82
2021/07/20 06:07:17;;;;;;;10.43;6.78;;;;;;;39.84;29.20;99038.88;5016745;28;20043;-83
2021/07/20 06:09:46;;;;;;;9.50;6.70;;;;;;;40.86;27.66;99058.50;5037688;28;20040;-83
2021/07/20 06:12:16;;;;;;;12.02;7.00;;;;;;;41.86;26.28;99077.16;4988855;28;20088;-82
2021/07/20 06:14:44;;;;;;;8.25;6.65;;;;;;;42.44;24.83;99066.50;5045399;28;20065;-82
2021/07/20 06:17:10;;;;;;;10.32;7.00;;;;;;;43.30;23.45;99059.41;5057817;28;20035;-83
2021/07/20 06:19:38;;;;;;;7.97;6.97;;;;;;;43.71;22.78;99046.41;5039951;28;20052;-83
2021/07/20 06:22:09;;;;;;;8.65;7.47;;;;;;;44.63;21.38;99086.31;5008634;28;20041;-82
2021/07/20 06:24:48;;;;;;;13.02;7.53;;;;;;;44.92;20.57;99053.19;4996282;28;20062;-83
2021/07/20 06:27:16;;;;;;;9.55;7.22;;;;;;;45.26;19.94;99077.69;5000579;28;20092;-82
2021/07/20 06:29:51;;;;;;;10.30;7.35;;;;;;;45.50;19.21;99060.88;4983167;28;20505;-82
2021/07/20 06:32:18;;;;;;;7.78;7.05;;;;;;;45.89;18.61;99099.09;4967493;28;20041;-81
2021/07/20 06:34:44;;;;;;;9.52;8.02;;;;;;;46.12;18.41;99083.31;5000794;28;20044;-81
2021/07/20 06:37:10;;;;;;;9.80;8.80;;;;;;;46.51;17.83;99093.13;4994309;28;20041;-80
2021/07/20 06:39:41;;;;;;;22.65;11.20;;;;;;;46.73;17.48;99074.50;5017834;28;20464;-80
2021/07/20 06:42:08;;;;;;;9.60;8.70;;;;;;;46.94;17.28;99088.34;4983378;28;20042;-79
2021/07/20 06:44:37;;;;;;;16.13;14.25;;;;;;;46.81;16.42;99089.69;5015951;28;20041;-80
2021/07/20 06:47:04;;;;;;;11.80;7.38;;;;;;;46.86;15.42;99077.88;4999375;28;20053;-80
2021/07/20 06:49:30;;;;;;;11.98;10.77;;;;;;;47.20;15.01;99086.50;4997198;28;20042;-79
2021/07/20 06:52:17;;;;;;;14.32;12.77;;;;;;;47.75;14.83;99076.88;5000192;28;20048;-79
2021/07/20 06:55:04;;;;;;;14.40;11.82;;;;;;;48.31;14.10;99086.09;4968144;28;20041;-80
2021/07/20 06:57:31;;;;;;;15.18;10.82;;;;;;;48.46;13.89;99094.34;4981145;28;20037;-80
2021/07/20 07:00:07;;;;;;;14.65;13.32;;;;;;;48.89;13.41;99091.09;4996930;28;20073;-82
2021/07/20 07:02:37;;;;;;;14.85;13.05;;;;;;;48.86;13.34;99075.13;5014509;28;20105;-81
2021/07/20 07:05:44;;;;;;;21.95;12.20;;;;;;;48.77;12.49;99091.47;4953858;29;20082;-82
2021/07/20 07:08:22;;;;;;;14.52;13.10;;;;;;;48.77;12.65;99080.41;4938274;29;20035;-79
2021/07/20 07:10:51;;;;;;;12.32;11.00;;;;;;;49.03;12.25;99084.94;4964291;28;20049;-79
2021/07/20 07:13:36;;;;;;;13.30;12.05;;;;;;;48.73;12.42;99071.06;4983397;28;20049;-81
2021/07/20 07:16:12;;;;;;;15.85;14.43;;;;;;;49.18;12.60;99079.34;4992583;28;20049;-81
2021/07/20 07:18:42;;;;;;;13.43;12.13;;;;;;;49.70;11.60;99077.00;4980718;28;20052;-79
2021/07/20 07:21:37;;;;;;;13.88;10.38;;;;;;;49.90;11.54;99069.63;4987124;28;20076;-79
2021/07/20 07:24:04;;;;;;;11.73;10.60;;;;;;;50.42;11.52;99080.09;4997609;28;20054;-82
2021/07/20 07:26:32;;;;;;;12.30;10.55;;;;;;;50.59;11.36;99085.97;4997235;28;20033;-83
2021/07/20 07:28:58;;;;;;;15.07;13.68;;;;;;;50.42;11.37;99085.63;4997164;28;20050;-80
2021/07/20 07:31:24;;;;;;;15.73;14.13;;;;;;;50.45;11.26;99082.25;4997102;28;20045;-82
2021/07/20 07:33:51;;;;;;;16.38;12.10;;;;;;;50.12;11.28;99077.38;5001651;28;20049;-83
2021/07/20 07:36:19;;;;;;;16.23;12.80;;;;;;;50.53;10.57;99075.28;4998247;28;20061;-79
2021/07/20 07:38:46;;;;;;;11.45;7.53;;;;;;;50.60;10.48;99082.09;4997521;28;20128;-81
2021/07/20 07:41:17;;;;;;;14.73;13.30;;;;;;;51.01;10.38;99090.94;4998096;28;20045;-80
2021/07/20 07:43:44;;;;;;;15.65;11.95;;;;;;;51.35;10.55;99073.25;4984877;28;20042;-80
2021/07/20 07:46:11;;;;;;;13.48;11.77;;;;;;;51.87;9.92;99088.97;5008285;28;20037;-82
2021/07/20 07:48:40;;;;;;;13.23;10.82;;;;;;;52.49;9.88;99083.03;4981290;28;20524;-80
2021/07/20 07:51:08;;;;;;;13.63;12.23;;;;;;;53.07;9.07;99086.19;4997249;28;20140;-80
2021/07/20 07:53:36;;;;;;;10.35;8.63;;;;;;;53.47;9.13;99077.19;4997114;28;20505;-81
2021/07/20 07:56:03;;;;;;;16.60;9.07;;;;;;;52.85;9.38;99078.66;4980826;28;20042;-82
2021/07/20 07:58:29;;;;;;;12.02;10.77;;;;;;;52.66;8.95;99085.16;4980385;28;20464;-80
2021/07/20 08:00:58;;;;;;;11.23;9.98;;;;;;;52.80;8.38;99087.09;4982330;28;20041;-81
2021/07/20 08:03:39;;;;;;;7.63;6.97;;;;;;;52.39;8.62;99084.09;4997353;28;20325;-81
2021/07/20 08:06:06;;;;;;;8.80;7.90;;;;;;;52.66;8.43;99085.16;4964819;28;20505;-81
2021/07/20 08:08:34;;;;;;;11.07;8.07;;;;;;;52.31;8.83;99084.00;4980761;28;20038;-82
2021/07/20 08:11:04;;;;;;;9.70;7.22;;;;;;;52.47;8.57;99085.31;4980355;28;20045;-81
2021/07/20 08:13:32;;;;;;;9.63;7.57;;;;;;;51.96;8.46;99068.56;4996110;28;20041;-79
2021/07/20 08:15:58;;;;;;;8.85;7.40;;;;;;;52.04;8.83;99044.84;4980458;28;20049;-80
2021/07/20 08:18:25;;;;;;;10.20;9.30;;;;;;;52.16;8.87;99069.28;4980856;28;20040;-83
2021/07/20 08:21:02;;;;;;;11.18;10.18;;;;;;;52.26;8.58;99084.91;5014080;28;20440;-82
2021/07/20 08:23:29;;;;;;;9.20;8.30;;;;;;;52.00;8.64;99092.91;4996941;28;20083;-78
2021/07/20 08:25:58;;;;;;;9.88;8.88;;;;;;;51.91;8.82;99070.63;5004840;28;20481;-81
2021/07/20 08:28:32;;;;;;;10.05;8.68;;;;;;;52.27;7.92;99078.22;5035119;28;20018;-83
2021/07/20 08:31:02;;;;;;;8.43;7.40;;;;;;;51.91;8.56;99085.28;4996234;28;20061;-82
2021/07/20 08:33:32;;;;;;;11.38;10.23;;;;;;;51.35;7.98;99074.06;5014112;28;20065;-81
2021/07/20 08:36:03;;;;;;;14.57;11.10;;;;;;;51.45;8.69;99073.06;4979357;28;20120;-82
2021/07/20 08:38:31;;;;;;;15.15;9.90;;;;;;;51.96;8.66;99081.63;4996440;28;20044;-82
2021/07/20 08:41:03;;;;;;;5.82;4.80;;;;;;;52.54;8.29;99073.78;4996970;28;20087;-80
2021/07/20 08:43:59;;;;;;;17.42;15.75;;;;;;;52.36;8.16;99087.47;5015274;28;20406;-81
2021/07/20 08:46:37;;;;;;;11.77;10.75;;;;;;;51.70;8.46;99087.63;5014016;28;20053;-84
2021/07/20 08:49:08;;;;;;;9.45;7.88;;;;;;;51.83;8.26;99089.56;4996363;28;20447;-83
2021/07/20 08:51:48;;;;;;;6.57;5.95;;;;;;;50.68;9.02;99085.28;4999300;28;20049;-79
2021/07/20 08:54:24;;;;;;;7.70;6.93;;;;;;;50.39;8.88;99073.22;4990264;28;20045;-81
2021/07/20 08:56:51;;;;;;;6.75;6.07;;;;;;;50.58;8.97;99070.50;4997353;28;20137;-81
2021/07/20 08:59:26;;;;;;;9.68;6.78;;;;;;;50.52;8.76;99076.41;5014831;28;20037;-83
2021/07/20 09:02:07;;;;;;;7.18;6.57;;;;;;;50.57;9.15;99079.09;4995787;28;20093;-77
2021/07/20 09:04:45;;;;;;;7.70;5.18;;;;;;;50.22;8.93;99075.66;5012260;28;20133;-77
2021/07/20 09:07:23;;;;;;;5.35;4.55;;;;;;;50.13;8.33;99076.25;5022264;28;20124;-77
2021/07/20 09:09:56;;;;;;;5.38;4.63;;;;;;;49.84;8.95;99059.75;5009368;28;20037;-79
2021/07/20 09:12:27;;;;;;;5.28;4.78;;;;;;;49.40;8.84;99087.16;5028264;28;20092;-76
2021/07/20 09:15:09;;;;;;;4.95;4.45;;;;;;;49.69;8.98;99077.25;4992073;28;20056;-79
2021/07/20 09:17:52;;;;;;;7.35;5.10;;;;;;;49.46;9.21;99082.44;5009545;28;20044;-77
2021/07/20 09:20:28;;;;;;;9.15;5.03;;;;;;;49.47;9.46;99080.53;5028274;28;20046;-78
2021/07/20 09:23:47;;;;;;;6.70;5.20;;;;;;;49.14;9.59;99076.31;5028146;28;20072;-77
2021/07/20 09:26:22;;;;;;;9.70;4.43;;;;;;;49.33;9.41;99074.81;5003134;28;20065;-78
2021/07/20 09:28:54;;;;;;;5.20;4.70;;;;;;;49.32;9.37;99065.72;5024690;28;20049;-78
2021/07/20 09:31:31;;;;;;;6.45;5.03;;;;;;;49.08;9.41;99073.91;5015156;28;20520;-78
2021/07/20 09:34:14;;;;;;;5.30;4.40;;;;;;;49.31;9.18;99075.13;5012398;28;20042;-77
2021/07/20 09:36:52;;;;;;;6.78;4.68;;;;;;;48.94;9.22;99055.22;5011551;28;20057;-78
2021/07/20 09:39:44;;;;;;;5.78;5.15;;;;;;;48.38;9.28;99070.13;4995396;28;20124;-78
2021/07/20 09:42:32;;;;;;;6.68;4.70;;;;;;;48.39;9.47;99050.53;5013488;28;20481;-79
2021/07/20 09:45:19;;;;;;;5.93;5.40;;;;;;;49.00;9.23;99065.06;5016567;28;20103;-79
2021/07/20 09:48:03;;;;;;;6.45;5.35;;;;;;;48.69;9.22;99059.78;5016633;28;20136;-80
2021/07/20 09:50:37;;;;;;;5.88;5.28;;;;;;;48.80;9.26;99062.47;4997979;28;20042;-78
2021/07/20 09:53:28;;;;;;;9.10;7.95;;;;;;;48.91;9.16;99063.22;4974305;28;20147;-78
2021/07/20 09:56:39;;;;;;;6.72;6.07;;;;;;;48.61;9.46;99059.53;5015789;28;20074;-78
2021/07/20 09:59:45;;;;;;;4.97;4.55;;;;;;;47.95;9.44;99046.53;4926608;29;20039;-78
2021/07/20 10:02:28;;;;;;;12.02;6.53;;;;;;;46.65;10.36;99052.22;5020933;28;20589;-78
2021/07/20 10:05:29;;;;;;;8.20;5.68;;;;;;;46.19;10.97;99058.34;5014615;28;20125;-78
2021/07/20 10:08:05;;;;;;;6.88;4.93;;;;;;;45.94;11.07;99049.66;4947043;28;20077;-80
2021/07/20 10:10:45;;;;;;;6.03;5.30;;;;;;;45.72;11.02;99044.31;4981606;28;20034;-79
2021/07/20 10:13:33;;;;;;;5.30;4.70;;;;;;;45.63;11.07;99048.59;4998418;28;20072;-79
2021/07/20 10:16:15;;;;;;;5.18;4.47;;;;;;;45.77;10.52;99060.84;4997997;28;20505;-79
2021/07/20 10:19:01;;;;;;;9.07;5.05;;;;;;;45.30;11.10;99064.28;5013886;28;20042;-77
2021/07/20 10:21:30;;;;;;;5.63;5.05;;;;;;;45.48;10.99;99063.88;4997273;28;20100;-78
2021/07/20 10:24:05;;;;;;;7.40;5.25;;;;;;;45.22;11.13;99049.91;5017397;28;20067;-78
2021/07/20 10:26:30;;;;;;;5.78;4.78;;;;;;;44.36;12.13;99059.66;5016181;28;20063;-78
2021/07/20 10:29:17;;;;;;;7.18;4.72;;;;;;;44.24;11.98;99057.03;5036036;28;20045;-77
2021/07/20 10:32:02;;;;;;;5.95;5.15;;;;;;;44.48;12.10;99056.78;5020469;28;20144;-78
2021/07/20 10:34:30;;;;;;;5.63;4.95;;;;;;;43.81;12.12;99047.66;5058132;28;20033;-78
2021/07/20 10:37:14;;;;;;;7.97;4.80;;;;;;;42.04;13.28;99038.00;5037851;28;20045;-77
2021/07/20 10:39:45;;;;;;;15.13;5.05;;;;;;;40.49;14.49;99053.94;5001103;28;20041;-77
2021/07/20 10:42:23;;;;;;;7.82;4.53;;;;;;;39.26;15.36;99054.34;5034686;28;20053;-78
2021/07/20 10:45:08;;;;;;;5.28;4.35;;;;;;;38.26;16.52;99052.91;5034468;28;20041;-79
2021/07/20 10:47:50;;;;;;;4.70;4.30;;;;;;;37.47;17.17;99059.00;4999851;28;20044;-76
2021/07/20 10:50:34;;;;;;;5.88;4.22;;;;;;;36.66;17.89;99040.81;4999971;28;20508;-77
2021/07/20 10:53:12;;;;;;;6.10;4.20;;;;;;;36.23;17.95;99061.63;5032715;28;20041;-76
2021/07/20 10:55:59;;;;;;;5.97;4.18;;;;;;;35.58;18.37;99056.34;5015861;28;20033;-77
2021/07/20 10:59:02;;;;;;;5.72;3.80;;;;;;;35.01;19.04;99058.03;5016814;28;20076;-74
2021/07/20 11:01:43;;;;;;;6.72;4.18;;;;;;;34.66;19.17;99064.03;5000400;28;20041;-78
2021/07/20 11:04:41;;;;;;;5.43;4.10;;;;;;;34.45;19.29;99060.22;5033938;28;20045;-78
2021/07/20 11:07:10;;;;;;;9.57;3.58;;;;;;;34.02;19.78;99068.91;5008486;28;20040;-78
2021/07/20 11:09:39;;;;;;;5.07;3.88;;;;;;;33.54;20.54;99061.06;5034516;28;20041;-77
2021/07/20 11:12:07;;;;;;;5.30;3.72;;;;;;;33.25;20.39;99057.19;5000455;28;20394;-80
2021/07/20 11:14:42;;;;;;;5.00;3.40;;;;;;;33.05;21.04;99037.97;5034090;28;20393;-77
2021/07/20 11:17:09;;;;;;;6.30;3.97;;;;;;;32.95;20.88;99051.69;5015898;28;20033;-78
2021/07/20 11:19:36;;;;;;;5.93;3.05;;;;;;;32.66;21.14;99039.66;5016369;28;20132;-77
2021/07/20 11:22:03;;;;;;;7.32;3.38;;;;;;;32.19;21.32;99025.19;5033870;28;20038;-77
2021/07/20 11:24:30;;;;;;;4.20;3.20;;;;;;;32.13;21.41;99053.59;5015021;28;20100;-76
2021/07/20 11:27:00;;;;;;;5.57;3.40;;;;;;;32.05;21.37;99055.47;4998694;28;20040;-76
2021/07/20 11:29:29;;;;;;;5.43;3.47;;;;;;;31.84;21.94;99057.69;5033097;28;20055;-77
2021/07/20 11:32:00;;;;;;;5.47;3.58;;;;;;;31.60;21.69;99052.28;5032116;28;20112;-77
2021/07/20 11:34:36;;;;;;;4.28;3.30;;;;;;;31.50;21.59;99069.41;5015365;28;20045;-76
2021/07/20 11:37:28;;;;;;;6.90;3.15;;;;;;;31.37;21.78;99056.47;5033677;28;20033;-77
2021/07/20 11:40:08;;;;;;;5.00;3.13;;;;;;;31.29;21.97;99055.63;5018155;28;20045;-79
2021/07/20 11:42:56;;;;;;;4.85;2.97;;;;;;;30.99;22.07;99048.00;5014952;28;20132;-78
2021/07/20 11:45:24;;;;;;;4.72;3.13;;;;;;;30.79;22.07;99039.38;5015619;28;20041;-78
2021/07/20 11:48:02;;;;;;;4.45;2.80;;;;;;;30.75;22.42;99054.97;5033536;28;20051;-77
2021/07/20 11:50:37;;;;;;;5.13;2.60;;;;;;;30.67;22.59;99051.41;4998974;28;20099;-78
2021/07/20 11:53:21;;;;;;;6.85;3.10;;;;;;;30.62;23.06;99062.66;5015895;28;20041;-78
2021/07/20 11:55:59;;;;;;;4.20;2.83;;;;;;;30.45;22.84;99065.22;5034214;28;20046;-77
2021/07/20 11:58:41;;;;;;;5.10;2.80;;;;;;;30.30;23.08;99045.34;5033735;28;20075;-78
2021/07/20 12:01:15;;;;;;;5.13;2.75;;;;;;;30.32;23.02;99060.28;5032376;28;20056;-77
2021/07/20 12:04:18;;;;;;;5.75;2.88;;;;;;;30.25;23.10;99061.06;4999753;28;20050;-77
2021/07/20 12:07:03;;;;;;;4.10;2.88;;;;;;;30.08;23.20;99071.69;5034018;28;20416;-78